createdAt,value
2022-12-11T00:06:28.923Z,99964.91
2022-12-11T00:13:14.272Z,100028.00
2022-12-11T00:20:02.750Z,100021.41
2022-12-11T00:26:48.345Z,100029.31
2022-12-11T00:33:33.722Z,100030.41
2022-12-11T00:40:21.774Z,100011.63
2022-12-11T00:47:08.536Z,100025.50
2022-12-11T00:53:54.014Z,100027.91
2022-12-11T01:00:44.156Z,100020.59
2022-12-11T01:07:29.697Z,100013.50
2022-12-11T01:14:15.764Z,100017.84
2022-12-11T01:21:07.880Z,100010.47
2022-12-11T01:27:54.692Z,100009.16
2022-12-11T01:34:40.103Z,99997.69
2022-12-11T01:41:28.951Z,100011.63
2022-12-11T01:48:18.557Z,100004.50
2022-12-11T01:55:04.826Z,100026.28
2022-12-11T02:01:59.812Z,99918.47
2022-12-11T02:08:45.218Z,100014.06
2022-12-11T02:15:38.743Z,100016.22
2022-12-11T02:22:41.545Z,100011.63
2022-12-11T02:29:38.084Z,100012.47
2022-12-11T02:36:28.321Z,100020.06
2022-12-11T02:43:17.276Z,100027.69
2022-12-11T02:50:12.797Z,100029.34
2022-12-11T02:57:05.022Z,100000.19
2022-12-11T03:03:53.262Z,100037.41
2022-12-11T03:10:41.491Z,100013.81
2022-12-11T03:17:33.167Z,100032.06
2022-12-11T03:24:24.644Z,100017.34
2022-12-11T03:31:17.097Z,100033.66
2022-12-11T03:38:10.092Z,99962.88
2022-12-11T03:44:58.208Z,99957.41
2022-12-11T04:05:12.584Z,100035.03
2022-12-11T04:11:58.240Z,100036.94
2022-12-11T04:18:56.151Z,100039.34
2022-12-11T04:25:44.279Z,100020.59
2022-12-11T04:32:29.725Z,100034.75
2022-12-11T04:39:15.222Z,100018.69
2022-12-11T04:46:12.449Z,100032.00
2022-12-11T04:52:58.774Z,99928.59
2022-12-11T04:59:44.245Z,100010.31
2022-12-11T05:06:32.217Z,99993.97
2022-12-11T05:13:17.599Z,100017.31
2022-12-11T05:20:05.523Z,100016.28
2022-12-11T05:26:53.542Z,100001.09
2022-12-11T05:33:38.980Z,100004.38
2022-12-11T05:40:24.408Z,99986.69
2022-12-11T05:47:12.452Z,99964.28
2022-12-11T05:54:00.622Z,99988.31
2022-12-11T06:00:47.276Z,99928.44
2022-12-11T06:07:35.301Z,99972.84
2022-12-11T06:14:20.749Z,99959.53
2022-12-11T06:21:13.373Z,99967.13
2022-12-11T06:28:01.788Z,99978.31
2022-12-11T06:34:47.224Z,99981.06
2022-12-11T06:41:32.623Z,99970.75
2022-12-11T06:48:21.214Z,99929.69
2022-12-11T06:55:07.282Z,99959.88
2022-12-11T07:01:52.818Z,99959.31
2022-12-11T07:08:41.036Z,99969.09
2022-12-11T07:15:26.500Z,99944.06
2022-12-11T07:22:12.161Z,99960.91
2022-12-11T07:29:02.032Z,99962.81
2022-12-11T07:35:48.575Z,99977.22
2022-12-11T07:42:33.963Z,99970.38
2022-12-11T07:49:21.962Z,99983.94
2022-12-11T07:56:08.155Z,99977.59
2022-12-11T08:02:53.615Z,99990.75
2022-12-11T08:09:42.022Z,99981.13
2022-12-11T08:16:27.676Z,100009.09
2022-12-11T08:23:13.090Z,100000.09
2022-12-11T08:30:01.211Z,99997.25
2022-12-11T08:36:46.817Z,100013.34
2022-12-11T08:43:32.279Z,99999.19
2022-12-11T08:50:20.512Z,99979.94
2022-12-11T08:57:05.949Z,100005.56
2022-12-11T09:03:52.185Z,99996.94
2022-12-11T09:10:40.263Z,100005.97
2022-12-11T09:17:25.624Z,99997.22
2022-12-11T09:24:13.921Z,99985.84
2022-12-11T09:31:02.187Z,100003.75
2022-12-11T09:37:47.652Z,99998.25
2022-12-11T09:44:45.913Z,99991.19
2022-12-11T09:51:42.328Z,99992.75
2022-12-11T09:58:39.031Z,99975.91
2022-12-11T10:05:34.442Z,100005.03
2022-12-11T10:12:35.855Z,99975.91
2022-12-11T10:19:25.785Z,99938.88
2022-12-11T10:26:24.200Z,99968.78
2022-12-11T10:33:23.504Z,99972.09
2022-12-11T10:40:11.763Z,99957.19
2022-12-11T10:47:09.679Z,99956.16
2022-12-11T10:54:07.143Z,99947.19
2022-12-11T11:01:07.957Z,99947.50
2022-12-11T11:07:53.548Z,99936.69
2022-12-11T11:14:41.690Z,99931.59
2022-12-11T11:21:30.553Z,99916.69
2022-12-11T11:28:23.972Z,99911.53
2022-12-11T11:35:22.374Z,99909.91
2022-12-11T11:42:18.209Z,99887.91
2022-12-11T11:49:13.447Z,99889.53
2022-12-11T11:56:16.063Z,99894.13
2022-12-11T12:03:05.127Z,99878.34
2022-12-11T12:10:01.147Z,99886.75
2022-12-11T12:17:04.988Z,99883.78
2022-12-11T12:24:17.009Z,99878.59
2022-12-11T12:31:16.085Z,99874.53
2022-12-11T12:38:14.376Z,99876.44
2022-12-11T12:45:10.496Z,99890.31
2022-12-11T12:51:57.195Z,99874.25
2022-12-11T12:58:50.186Z,99872.38
2022-12-11T13:05:38.050Z,99882.41
2022-12-11T13:12:43.183Z,99869.38
2022-12-11T13:19:42.249Z,99870.19
2022-12-11T13:26:35.479Z,99882.13
2022-12-11T13:33:23.030Z,99875.59
2022-12-11T13:40:23.972Z,99879.66
2022-12-11T13:47:16.218Z,99883.19
2022-12-11T13:54:20.401Z,99877.19
2022-12-11T14:01:13.574Z,99866.34
2022-12-11T14:08:02.544Z,99883.69
2022-12-11T14:14:53.969Z,99881.00
2022-12-11T14:21:42.145Z,99890.78
2022-12-11T14:28:31.243Z,99894.56
2022-12-11T14:35:27.779Z,99898.94
2022-12-11T14:42:22.297Z,99899.47
2022-12-11T14:49:15.002Z,99902.72
2022-12-11T14:56:05.737Z,99915.50
2022-12-11T15:03:02.601Z,99909.25
2022-12-11T15:09:50.384Z,99922.53
2022-12-11T15:16:41.824Z,99909.53
2022-12-11T15:23:30.831Z,99908.72
2022-12-11T15:30:30.618Z,99919.56
2022-12-11T15:37:27.097Z,99926.63
2022-12-11T15:44:24.233Z,99920.13
2022-12-11T15:51:09.674Z,99929.25
2022-12-11T15:57:58.254Z,99828.34
2022-12-11T16:04:46.843Z,99859.28
2022-12-11T16:11:32.321Z,99907.38
2022-12-11T16:18:20.429Z,99909.78
2022-12-11T16:25:10.590Z,99913.34
2022-12-11T16:31:56.240Z,99923.94
2022-12-11T16:38:41.680Z,99926.41
2022-12-11T16:45:30.166Z,99872.09
2022-12-11T16:52:21.808Z,99915.25
2022-12-11T16:59:08.616Z,99920.41
2022-12-11T17:05:56.623Z,99906.31
2022-12-11T17:12:43.400Z,99914.69
2022-12-11T17:19:30.061Z,99906.56
2022-12-11T17:26:18.698Z,99910.63
2022-12-11T17:33:04.665Z,99911.97
2022-12-11T17:39:50.250Z,99907.09
2022-12-11T17:46:38.288Z,99890.31
2022-12-11T17:53:26.361Z,99891.16
2022-12-11T18:00:13.996Z,99904.47
2022-12-11T18:07:03.708Z,99896.59
2022-12-11T18:13:50.322Z,99923.75
2022-12-11T18:20:37.399Z,99905.22
2022-12-11T18:27:25.571Z,99903.59
2022-12-11T18:34:11.190Z,99897.06
2022-12-11T18:40:56.622Z,99906.00
2022-12-11T18:47:44.638Z,99907.09
2022-12-11T18:54:30.077Z,99900.06
2022-12-11T19:01:20.471Z,99908.44
2022-12-11T19:08:09.001Z,99903.03
2022-12-11T19:14:54.603Z,99912.50
2022-12-11T19:21:41.476Z,99895.38
2022-12-11T19:28:29.398Z,99900.69
2022-12-11T19:35:16.732Z,99898.06
2022-12-11T19:42:02.386Z,99886.66
2022-12-11T19:48:53.508Z,99879.63
2022-12-11T19:55:39.116Z,99888.88
2022-12-11T20:02:24.857Z,99900.81
2022-12-11T20:09:14.593Z,99895.13
2022-12-11T20:16:00.115Z,99892.16
2022-12-11T20:22:46.824Z,99907.06
2022-12-11T20:29:34.864Z,99898.41
2022-12-11T20:36:22.218Z,99892.97
2022-12-11T20:43:07.623Z,99909.81
2022-12-11T20:49:55.977Z,99908.75
2022-12-11T20:56:41.941Z,99901.41
2022-12-11T21:03:27.442Z,99917.72
2022-12-11T21:10:16.882Z,99909.81
2022-12-11T21:17:04.517Z,99896.53
2022-12-11T21:23:50.209Z,99919.88
2022-12-11T21:30:41.289Z,99893.75
2022-12-11T21:37:29.153Z,99912.78
2022-12-11T21:51:27.703Z,99848.44
2022-12-11T21:58:16.435Z,99922.00
2022-12-11T22:05:04.955Z,99899.47
2022-12-11T22:11:58.066Z,99908.97
2022-12-11T22:18:44.194Z,99922.84
2022-12-11T22:25:29.606Z,99924.47
2022-12-11T22:32:17.930Z,99904.41
2022-12-11T22:39:04.317Z,99903.63
2022-12-11T22:45:50.631Z,99913.88
2022-12-11T22:52:39.495Z,99912.88
2022-12-11T22:59:24.964Z,99906.34
2022-12-11T23:06:12.174Z,99910.44
2022-12-11T23:13:00.229Z,99903.66
2022-12-11T23:19:46.847Z,99922.66
2022-12-11T23:26:33.123Z,99923.22
2022-12-11T23:33:21.767Z,99902.56
2022-12-11T23:40:11.435Z,99899.03
2022-12-11T23:46:56.851Z,99925.66
2022-12-11T23:53:45.283Z,99940.59
